createdAt,value
2018-10-17T00:00:39.270Z,10.20
2018-10-17T00:03:09.081Z,10.57
2018-10-17T00:05:39.239Z,10.60
2018-10-17T00:08:09.058Z,10.03
2018-10-17T00:10:39.078Z,9.63
2018-10-17T00:13:09.065Z,10.23
2018-10-17T00:15:39.002Z,10.23
2018-10-17T00:18:08.883Z,11.20
2018-10-17T00:20:38.970Z,10.70
2018-10-17T00:23:08.953Z,9.93
2018-10-17T00:25:38.861Z,9.37
2018-10-17T00:28:08.651Z,11.97
2018-10-17T00:30:38.797Z,11.03
2018-10-17T00:33:08.625Z,9.63
2018-10-17T00:35:38.536Z,10.37
2018-10-17T00:38:08.374Z,10.23
2018-10-17T00:40:38.429Z,12.27
2018-10-17T00:43:09.263Z,10.93
2018-10-17T00:45:39.069Z,11.73
2018-10-17T00:48:08.961Z,9.90
2018-10-17T00:50:38.881Z,10.43
2018-10-17T00:53:08.814Z,9.70
2018-10-17T00:55:38.953Z,10.00
2018-10-17T00:58:08.743Z,9.90
2018-10-17T01:00:38.669Z,10.77
2018-10-17T01:03:08.472Z,9.27
2018-10-17T01:05:38.221Z,8.90
2018-10-17T01:08:08.111Z,10.13
2018-10-17T01:10:38.019Z,9.30
2018-10-17T01:13:07.953Z,11.33
2018-10-17T01:15:37.834Z,13.60
2018-10-17T01:18:07.808Z,11.73
2018-10-17T01:20:37.704Z,11.03
2018-10-17T01:23:07.561Z,10.53
2018-10-17T01:25:37.494Z,10.50
2018-10-17T01:28:07.511Z,12.60
2018-10-17T01:30:37.435Z,10.27
2018-10-17T01:33:07.716Z,9.27
2018-10-17T01:35:37.555Z,9.73
2018-10-17T01:38:07.527Z,10.13
2018-10-17T01:40:37.676Z,9.33
2018-10-17T01:43:07.725Z,9.97
2018-10-17T01:45:37.497Z,10.30
2018-10-17T01:48:07.711Z,9.40
2018-10-17T01:50:37.647Z,9.90
2018-10-17T01:53:07.516Z,11.57
2018-10-17T01:55:37.693Z,11.40
2018-10-17T01:58:07.511Z,10.30
2018-10-17T02:00:37.438Z,10.27
2018-10-17T02:03:07.407Z,10.60
2018-10-17T02:05:37.522Z,9.73
2018-10-17T02:08:07.573Z,8.93
2018-10-17T02:10:37.687Z,10.67
2018-10-17T02:13:08.124Z,9.30
2018-10-17T02:15:37.946Z,9.20
2018-10-17T02:18:08.014Z,8.67
2018-10-17T02:20:37.961Z,8.70
2018-10-17T02:23:08.110Z,8.90
2018-10-17T02:25:38.061Z,8.40
2018-10-17T02:28:07.928Z,10.03
2018-10-17T02:30:37.905Z,8.87
2018-10-17T02:33:08.021Z,8.73
2018-10-17T02:35:37.889Z,11.20
2018-10-17T02:38:07.766Z,9.70
2018-10-17T02:40:37.635Z,9.23
2018-10-17T02:43:07.699Z,10.17
2018-10-17T02:45:37.602Z,10.67
2018-10-17T02:48:07.629Z,8.87
2018-10-17T02:50:37.581Z,8.70
2018-10-17T02:53:07.678Z,10.47
2018-10-17T02:55:37.489Z,8.17
2018-10-17T02:58:07.336Z,8.17
2018-10-17T03:00:37.235Z,8.47
2018-10-17T03:03:07.320Z,10.20
2018-10-17T03:05:37.113Z,9.00
2018-10-17T03:08:07.222Z,9.13
2018-10-17T03:10:37.184Z,8.17
2018-10-17T03:13:07.555Z,8.50
2018-10-17T03:15:37.474Z,8.73
2018-10-17T03:18:07.376Z,8.57
2018-10-17T03:20:38.100Z,8.70
2018-10-17T03:23:08.011Z,8.53
2018-10-17T03:25:37.946Z,9.23
2018-10-17T03:28:07.834Z,9.40
2018-10-17T03:30:37.710Z,9.77
2018-10-17T03:33:07.789Z,8.97
2018-10-17T03:35:37.884Z,8.43
2018-10-17T03:38:07.956Z,9.53
2018-10-17T03:40:38.021Z,8.63
2018-10-17T03:43:07.913Z,10.47
2018-10-17T03:45:37.913Z,9.37
2018-10-17T03:48:07.844Z,8.53
2018-10-17T03:50:37.913Z,10.73
2018-10-17T03:53:07.833Z,8.60
2018-10-17T03:55:37.926Z,9.40
2018-10-17T03:58:07.915Z,9.80
2018-10-17T04:00:37.786Z,9.73
2018-10-17T04:03:07.893Z,7.97
2018-10-17T04:05:37.772Z,8.30
2018-10-17T04:08:07.624Z,8.77
2018-10-17T04:10:37.571Z,8.80
2018-10-17T04:13:07.652Z,12.60
2018-10-17T04:15:37.566Z,9.37
2018-10-17T04:18:07.458Z,9.00
2018-10-17T04:20:37.492Z,8.30
2018-10-17T04:23:07.406Z,8.97
2018-10-17T04:25:37.328Z,8.43
2018-10-17T04:28:07.282Z,9.83
2018-10-17T04:30:37.374Z,11.97
2018-10-17T04:33:07.313Z,8.97
2018-10-17T04:35:37.197Z,8.97
2018-10-17T04:38:07.265Z,8.63
2018-10-17T04:40:37.112Z,8.80
2018-10-17T04:43:07.107Z,9.43
2018-10-17T04:45:37.324Z,10.17
2018-10-17T04:48:07.293Z,8.70
2018-10-17T04:50:37.149Z,10.57
2018-10-17T04:53:07.121Z,14.00
2018-10-17T04:55:36.875Z,16.07
2018-10-17T04:58:07.061Z,10.87
2018-10-17T05:00:36.911Z,10.63
2018-10-17T05:03:07.782Z,9.97
2018-10-17T05:05:37.570Z,13.23
2018-10-17T05:08:08.065Z,10.93
2018-10-17T05:10:37.961Z,9.60
2018-10-17T05:13:08.194Z,9.83
2018-10-17T05:15:37.920Z,12.30
2018-10-17T05:18:07.869Z,17.83
2018-10-17T05:20:37.644Z,10.80
2018-10-17T05:23:07.702Z,14.00
2018-10-17T05:25:37.940Z,15.17
2018-10-17T05:28:07.957Z,11.07
2018-10-17T05:30:37.953Z,10.20
2018-10-17T05:33:08.179Z,10.23
2018-10-17T05:35:38.131Z,12.63
2018-10-17T05:38:08.236Z,13.40
2018-10-17T05:40:37.983Z,11.67
2018-10-17T05:43:08.050Z,10.53
2018-10-17T05:45:38.024Z,10.13
2018-10-17T05:48:07.877Z,12.17
2018-10-17T05:50:37.821Z,13.83
2018-10-17T05:53:07.784Z,13.10
2018-10-17T05:55:37.693Z,13.47
2018-10-17T05:58:07.892Z,13.17
2018-10-17T06:00:37.736Z,12.07
2018-10-17T06:03:08.273Z,10.57
2018-10-17T06:05:38.184Z,14.90
2018-10-17T06:08:07.962Z,15.93
2018-10-17T06:10:37.842Z,13.97
2018-10-17T06:13:07.962Z,11.43
2018-10-17T06:15:37.714Z,16.37
2018-10-17T06:18:07.816Z,13.57
2018-10-17T06:20:37.692Z,13.73
2018-10-17T06:23:07.590Z,15.37
2018-10-17T06:25:37.525Z,14.90
2018-10-17T06:28:07.369Z,18.77
2018-10-17T06:30:37.468Z,12.60
2018-10-17T06:33:07.225Z,14.13
2018-10-17T06:35:37.188Z,15.73
2018-10-17T06:38:07.517Z,15.03
2018-10-17T06:40:37.624Z,15.10
2018-10-17T06:43:07.825Z,20.57
2018-10-17T06:45:37.867Z,15.20
2018-10-17T06:48:07.849Z,14.93
2018-10-17T06:50:38.134Z,15.40
2018-10-17T06:53:08.467Z,13.70
2018-10-17T06:55:38.305Z,16.73
2018-10-17T06:58:08.470Z,16.07
2018-10-17T07:00:38.345Z,14.17
2018-10-17T07:03:08.325Z,16.90
2018-10-17T07:05:38.157Z,15.53
2018-10-17T07:08:08.049Z,13.50
2018-10-17T07:10:38.084Z,12.43
2018-10-17T07:13:07.682Z,14.17
2018-10-17T07:15:37.612Z,12.83
2018-10-17T07:18:08.224Z,14.73
2018-10-17T07:20:38.625Z,13.30
2018-10-17T07:23:09.044Z,12.20
2018-10-17T07:25:39.149Z,15.63
2018-10-17T07:28:09.131Z,15.97
2018-10-17T07:30:38.974Z,13.70
2018-10-17T07:33:09.100Z,16.93
2018-10-17T07:35:39.213Z,12.40
2018-10-17T07:38:09.143Z,13.33
2018-10-17T07:40:39.160Z,14.30
2018-10-17T07:43:08.937Z,17.03
2018-10-17T07:45:39.300Z,15.97
2018-10-17T07:48:09.436Z,12.83
2018-10-17T07:50:39.163Z,15.70
2018-10-17T07:53:09.193Z,12.60
2018-10-17T07:55:39.150Z,12.50
2018-10-17T07:58:09.109Z,13.60
2018-10-17T08:00:39.353Z,15.70
2018-10-17T08:03:09.436Z,12.87
2018-10-17T08:05:39.333Z,12.30
2018-10-17T08:08:09.291Z,12.27
2018-10-17T08:10:39.371Z,11.07
2018-10-17T08:13:09.394Z,14.27
2018-10-17T08:15:39.262Z,14.43
2018-10-17T08:18:09.423Z,12.67
2018-10-17T08:20:39.345Z,12.27
2018-10-17T08:23:09.480Z,13.60
2018-10-17T08:25:39.672Z,11.13
2018-10-17T08:28:09.740Z,11.73
2018-10-17T08:30:39.885Z,13.20
2018-10-17T08:33:10.141Z,15.37
2018-10-17T08:35:40.516Z,12.43
2018-10-17T08:38:10.921Z,12.27
2018-10-17T08:40:40.795Z,13.67
2018-10-17T08:43:10.705Z,11.93
2018-10-17T08:45:40.824Z,12.90
2018-10-17T08:48:10.785Z,16.03
2018-10-17T08:50:41.460Z,13.63
2018-10-17T08:53:11.470Z,12.30
2018-10-17T08:55:41.342Z,17.83
2018-10-17T08:58:11.302Z,13.03
2018-10-17T09:00:41.128Z,15.57
2018-10-17T09:03:11.410Z,13.10
2018-10-17T09:05:52.471Z,13.80
2018-10-17T09:08:22.436Z,14.27
2018-10-17T09:10:52.357Z,14.80
2018-10-17T09:13:22.554Z,16.27
2018-10-17T09:15:52.604Z,18.87
2018-10-17T09:20:47.374Z,15.50
2018-10-17T09:23:17.385Z,15.83
2018-10-17T09:25:47.385Z,15.87
2018-10-17T09:28:17.688Z,13.57
2018-10-17T09:30:47.834Z,18.57
2018-10-17T09:33:18.004Z,17.10
2018-10-17T09:35:47.945Z,17.30
2018-10-17T09:38:18.044Z,15.23
2018-10-17T09:40:48.155Z,15.73
2018-10-17T09:43:18.389Z,17.57
2018-10-17T09:45:48.326Z,15.27
2018-10-17T09:48:18.222Z,20.97
2018-10-17T09:50:48.036Z,15.13
2018-10-17T09:53:18.212Z,15.83
2018-10-17T09:55:48.027Z,15.23
2018-10-17T09:58:17.966Z,16.53
2018-10-17T10:00:53.019Z,16.87
2018-10-17T10:03:22.940Z,15.07
2018-10-17T10:05:52.899Z,13.77
2018-10-17T10:08:23.235Z,16.47
2018-10-17T10:10:53.302Z,16.73
2018-10-17T10:13:23.480Z,15.13
2018-10-17T10:15:53.462Z,17.17
2018-10-17T10:18:23.435Z,14.97
2018-10-17T10:20:53.628Z,18.13
2018-10-17T10:23:23.561Z,13.83
2018-10-17T10:25:53.413Z,13.27
2018-10-17T10:28:23.603Z,16.73
2018-10-17T10:30:53.397Z,14.83
2018-10-17T10:33:23.222Z,19.70
2018-10-17T10:35:53.325Z,14.83
2018-10-17T10:38:23.340Z,15.47
2018-10-17T10:40:53.469Z,13.33
2018-10-17T10:43:23.812Z,17.30
2018-10-17T10:45:53.683Z,16.70
2018-10-17T10:48:23.788Z,23.57
2018-10-17T10:50:53.748Z,21.27
2018-10-17T10:53:23.702Z,19.47
2018-10-17T10:55:53.707Z,20.90
2018-10-17T10:58:23.989Z,18.90
2018-10-17T11:00:53.668Z,17.73
2018-10-17T11:03:23.887Z,17.77
2018-10-17T11:05:54.085Z,20.97
2018-10-17T11:08:24.196Z,20.40
2018-10-17T11:10:54.897Z,24.53
2018-10-17T11:13:25.357Z,29.93
2018-10-17T11:15:55.437Z,24.13
2018-10-17T11:18:25.572Z,22.40
2018-10-17T11:20:55.573Z,23.63
2018-10-17T11:23:25.381Z,26.60
2018-10-17T11:25:55.760Z,28.83
2018-10-17T11:28:26.046Z,28.23
2018-10-17T11:30:56.003Z,23.90
2018-10-17T11:33:25.839Z,28.10
2018-10-17T11:35:55.804Z,32.27
2018-10-17T11:38:25.718Z,31.90
2018-10-17T11:40:55.796Z,26.60
2018-10-17T11:43:25.787Z,23.03
2018-10-17T11:45:55.760Z,23.90
2018-10-17T11:48:25.693Z,26.20
2018-10-17T11:50:55.627Z,23.53
2018-10-17T11:53:25.526Z,26.87
2018-10-17T11:55:55.591Z,25.73
2018-10-17T11:58:25.630Z,26.97
2018-10-17T12:00:55.875Z,27.20
2018-10-17T12:03:25.954Z,24.97
2018-10-17T12:05:55.896Z,30.37
2018-10-17T12:08:25.609Z,25.73
2018-10-17T12:10:55.628Z,32.70
2018-10-17T12:13:25.431Z,25.67
2018-10-17T12:15:55.464Z,25.93
2018-10-17T12:18:25.427Z,29.97
2018-10-17T12:20:55.378Z,23.90
2018-10-17T12:23:25.311Z,28.70
2018-10-17T12:25:55.479Z,22.97
2018-10-17T12:28:25.527Z,26.63
2018-10-17T12:30:55.520Z,19.93
2018-10-17T12:33:25.600Z,31.53
2018-10-17T12:35:55.621Z,24.40
2018-10-17T12:38:25.528Z,22.30
2018-10-17T12:40:55.678Z,27.23
2018-10-17T12:43:25.628Z,26.40
2018-10-17T12:45:55.996Z,25.93
2018-10-17T12:48:25.916Z,24.27
2018-10-17T12:50:55.806Z,25.77
2018-10-17T12:53:25.852Z,28.57
2018-10-17T12:55:55.930Z,22.30
2018-10-17T12:58:25.745Z,24.87
2018-10-17T13:00:55.958Z,23.77
2018-10-17T13:03:26.256Z,20.27
2018-10-17T13:05:56.220Z,18.57
2018-10-17T13:08:26.175Z,22.37
2018-10-17T13:10:56.121Z,21.13
2018-10-17T13:13:26.147Z,20.87
2018-10-17T13:15:56.053Z,22.37
2018-10-17T13:18:26.014Z,27.03
2018-10-17T13:20:55.804Z,24.77
2018-10-17T13:23:25.730Z,24.00
2018-10-17T13:25:55.688Z,24.37
2018-10-17T13:28:25.625Z,19.07
2018-10-17T13:30:55.687Z,25.57
2018-10-17T13:33:25.489Z,27.10
2018-10-17T13:35:55.777Z,35.57
2018-10-17T13:38:25.720Z,32.53
2018-10-17T13:40:55.699Z,29.43
2018-10-17T13:43:25.847Z,24.83
2018-10-17T13:45:55.779Z,29.03
2018-10-17T13:48:25.773Z,31.00
2018-10-17T13:50:56.039Z,26.80
2018-10-17T13:53:26.115Z,30.50
2018-10-17T13:55:56.035Z,43.07
2018-10-17T13:58:25.958Z,42.17
2018-10-17T14:00:55.822Z,35.57
2018-10-17T14:03:25.681Z,31.37
2018-10-17T14:05:55.688Z,34.00
2018-10-17T14:08:25.701Z,31.40
2018-10-17T14:10:55.600Z,37.43
2018-10-17T14:13:25.994Z,31.87
2018-10-17T14:15:55.745Z,30.87
2018-10-17T14:18:25.791Z,22.60
2018-10-17T14:20:55.797Z,33.97
2018-10-17T14:23:25.670Z,29.03
2018-10-17T14:25:55.623Z,28.27
2018-10-17T14:28:25.982Z,32.63
2018-10-17T14:30:56.052Z,29.70
2018-10-17T14:33:26.125Z,26.17
2018-10-17T14:35:56.259Z,25.83
2018-10-17T14:38:26.179Z,29.87
2018-10-17T14:40:56.216Z,26.23
2018-10-17T14:43:26.125Z,31.70
2018-10-17T14:45:55.989Z,27.23
2018-10-17T14:48:26.119Z,27.47
2018-10-17T14:50:56.030Z,26.40
2018-10-17T14:53:25.956Z,26.57
2018-10-17T14:55:55.908Z,26.77
2018-10-17T14:58:25.791Z,27.17
2018-10-17T15:00:55.954Z,26.37
2018-10-17T15:03:26.092Z,27.40
2018-10-17T15:05:56.124Z,26.17
2018-10-17T15:08:26.057Z,29.20
2018-10-17T15:10:56.372Z,31.20
2018-10-17T15:13:26.467Z,28.50
2018-10-17T15:15:56.480Z,29.90
2018-10-17T15:18:26.616Z,31.50
2018-10-17T15:20:56.513Z,37.70
2018-10-17T15:23:26.356Z,30.17
2018-10-17T15:25:56.388Z,33.67
2018-10-17T15:28:26.404Z,30.23
2018-10-17T15:30:56.384Z,39.13
2018-10-17T15:33:26.492Z,42.97
2018-10-17T15:35:56.430Z,45.27
2018-10-17T15:38:26.696Z,49.70
2018-10-17T15:40:56.653Z,55.17
2018-10-17T15:43:27.279Z,53.03
2018-10-17T15:45:57.511Z,50.47
2018-10-17T15:48:27.379Z,57.67
2018-10-17T15:50:57.228Z,50.17
2018-10-17T15:53:27.255Z,53.17
2018-10-17T15:55:57.269Z,56.77
2018-10-17T15:58:27.253Z,52.30
2018-10-17T16:00:57.807Z,54.57
2018-10-17T16:03:28.101Z,50.17
2018-10-17T16:05:58.321Z,50.13
2018-10-17T16:08:28.501Z,64.23
2018-10-17T16:10:58.416Z,56.00
2018-10-17T16:13:28.381Z,58.33
2018-10-17T16:15:58.338Z,57.60
2018-10-17T16:18:28.302Z,62.40
2018-10-17T16:20:58.536Z,56.80
2018-10-17T16:23:28.516Z,57.93
2018-10-17T16:25:58.626Z,55.33
2018-10-17T16:28:28.541Z,56.03
2018-10-17T16:30:58.550Z,59.53
2018-10-17T16:33:28.527Z,55.60
2018-10-17T16:35:58.747Z,63.87
2018-10-17T16:38:28.729Z,54.43
2018-10-17T16:40:58.945Z,51.27
2018-10-17T16:43:28.736Z,58.00
2018-10-17T16:45:58.765Z,55.90
2018-10-17T16:48:28.948Z,54.60
2018-10-17T16:50:59.037Z,53.60
2018-10-17T16:53:28.953Z,57.50
2018-10-17T16:55:58.870Z,51.03
2018-10-17T16:58:28.916Z,48.63
2018-10-17T17:00:58.726Z,51.70
2018-10-17T17:03:28.776Z,44.53
2018-10-17T17:05:58.788Z,46.27
2018-10-17T17:08:28.871Z,43.10
2018-10-17T17:10:59.075Z,45.87
2018-10-17T17:13:29.038Z,45.03
2018-10-17T17:15:58.984Z,46.57
2018-10-17T17:18:29.053Z,44.90
2018-10-17T17:20:59.176Z,53.27
2018-10-17T17:23:29.168Z,43.70
2018-10-17T17:25:59.179Z,42.47
2018-10-17T17:28:29.124Z,44.53
2018-10-17T17:30:59.389Z,46.70
2018-10-17T17:33:29.665Z,46.20
2018-10-17T17:35:59.704Z,40.17
2018-10-17T17:38:30.388Z,47.80
2018-10-17T17:41:00.337Z,42.33
2018-10-17T17:43:30.238Z,46.80
2018-10-17T17:46:00.258Z,47.37
2018-10-17T17:48:30.720Z,43.27
2018-10-17T17:51:00.762Z,41.17
2018-10-17T17:53:30.771Z,43.30
2018-10-17T17:56:01.026Z,48.93
2018-10-17T17:58:31.049Z,46.97
2018-10-17T18:01:01.021Z,41.00
2018-10-17T18:03:30.950Z,45.40
2018-10-17T18:06:00.838Z,41.20
2018-10-17T18:08:30.838Z,41.07
2018-10-17T18:11:20.500Z,48.90
2018-10-17T18:13:51.037Z,48.87
2018-10-17T18:16:21.147Z,53.63
2018-10-17T18:18:51.204Z,50.60
2018-10-17T18:21:21.281Z,51.43
2018-10-17T18:23:51.351Z,56.03
2018-10-17T18:26:21.213Z,55.17
2018-10-17T18:28:51.421Z,53.20
2018-10-17T18:31:21.355Z,49.73
2018-10-17T18:33:51.579Z,51.77
2018-10-17T18:36:21.609Z,46.47
2018-10-17T18:38:51.625Z,57.93
2018-10-17T18:41:21.506Z,51.37
2018-10-17T18:43:51.422Z,50.47
2018-10-17T18:46:21.432Z,54.87
2018-10-17T18:48:51.240Z,49.53
2018-10-17T18:51:21.376Z,52.03
2018-10-17T18:53:51.220Z,52.67
2018-10-17T18:56:21.106Z,52.83
2018-10-17T18:58:51.043Z,51.87
2018-10-17T19:01:20.979Z,49.60
2018-10-17T19:03:50.714Z,58.57
2018-10-17T19:06:20.547Z,52.10
2018-10-17T19:08:50.444Z,57.27
2018-10-17T19:11:20.420Z,64.37
2018-10-17T19:13:50.260Z,55.10
2018-10-17T19:16:20.116Z,54.23
2018-10-17T19:18:50.211Z,57.17
2018-10-17T19:21:20.069Z,58.33
2018-10-17T19:23:50.221Z,55.73
2018-10-17T19:26:20.855Z,53.73
2018-10-17T19:28:51.065Z,55.60
2018-10-17T19:31:20.871Z,56.87
2018-10-17T19:33:50.646Z,58.27
2018-10-17T19:36:20.643Z,54.43
2018-10-17T19:38:50.577Z,56.80
2018-10-17T19:41:20.520Z,59.27
2018-10-17T19:43:50.693Z,68.60
2018-10-17T19:46:20.551Z,61.63
2018-10-17T19:48:50.448Z,58.17
2018-10-17T19:51:20.332Z,56.17
2018-10-17T19:53:50.365Z,62.30
2018-10-17T19:56:20.290Z,58.80
2018-10-17T19:58:50.529Z,55.90
2018-10-17T20:01:20.852Z,57.33
2018-10-17T20:03:50.789Z,58.83
2018-10-17T20:06:20.653Z,62.23
2018-10-17T20:08:50.667Z,57.33
2018-10-17T20:11:20.593Z,60.20
2018-10-17T20:13:50.615Z,64.90
2018-10-17T20:16:20.560Z,56.97
2018-10-17T20:18:50.641Z,62.03
2018-10-17T20:21:20.552Z,59.47
2018-10-17T20:23:50.561Z,57.20
2018-10-17T20:26:20.532Z,54.47
2018-10-17T20:28:50.357Z,63.63
2018-10-17T20:31:20.087Z,60.23
2018-10-17T20:33:50.162Z,59.07
2018-10-17T20:36:20.047Z,63.77
2018-10-17T20:38:50.263Z,59.63
2018-10-17T20:41:20.495Z,64.17
2018-10-17T20:43:50.460Z,63.63
2018-10-17T20:46:20.253Z,61.83
2018-10-17T20:48:50.290Z,57.10
2018-10-17T20:51:20.588Z,61.70
2018-10-17T20:53:50.544Z,57.97
2018-10-17T20:56:20.549Z,63.93
2018-10-17T20:58:50.257Z,61.27
2018-10-17T21:01:19.995Z,61.50
2018-10-17T21:03:49.861Z,65.00
2018-10-17T21:06:19.857Z,62.00
2018-10-17T21:08:49.850Z,64.70
2018-10-17T21:11:19.588Z,58.00
2018-10-17T21:13:49.359Z,62.10
2018-10-17T21:16:19.294Z,63.17
2018-10-17T21:18:49.120Z,61.93
2018-10-17T21:21:19.089Z,62.60
2018-10-17T21:23:48.836Z,61.03
2018-10-17T21:26:19.124Z,60.33
2018-10-17T21:28:49.132Z,58.87
2018-10-17T21:31:18.950Z,65.63
2018-10-17T21:33:48.756Z,53.47
2018-10-17T21:36:18.546Z,55.13
2018-10-17T21:38:48.393Z,56.17
2018-10-17T21:41:18.375Z,57.23
2018-10-17T21:43:48.366Z,58.57
2018-10-17T21:46:18.241Z,53.90
2018-10-17T21:48:48.151Z,52.73
2018-10-17T21:51:18.079Z,55.10
2018-10-17T21:53:48.073Z,54.87
2018-10-17T21:56:18.032Z,52.33
2018-10-17T21:58:48.072Z,54.53
2018-10-17T22:01:18.223Z,54.33
2018-10-17T22:03:48.276Z,48.30
2018-10-17T22:06:18.087Z,51.87
2018-10-17T22:08:48.152Z,47.77
2018-10-17T22:11:18.262Z,48.37
2018-10-17T22:13:48.100Z,48.77
2018-10-17T22:16:18.023Z,47.47
2018-10-17T22:18:48.185Z,50.00
2018-10-17T22:21:18.315Z,44.93
2018-10-17T22:23:48.191Z,50.83
2018-10-17T22:26:18.287Z,50.07
2018-10-17T22:28:48.223Z,49.00
2018-10-17T22:31:18.052Z,48.30
2018-10-17T22:33:48.181Z,44.27
2018-10-17T22:36:18.062Z,45.80
2018-10-17T22:38:48.116Z,46.83
2018-10-17T22:41:18.142Z,46.13
2018-10-17T22:43:47.916Z,46.43
2018-10-17T22:46:17.981Z,45.20
2018-10-17T22:48:47.852Z,45.03
2018-10-17T22:51:17.947Z,41.33
2018-10-17T22:53:47.794Z,49.50
2018-10-17T22:56:17.702Z,46.77
2018-10-17T22:58:47.593Z,42.37
2018-10-17T23:01:17.872Z,43.30
2018-10-17T23:03:47.839Z,40.20
2018-10-17T23:06:17.655Z,41.70
2018-10-17T23:08:47.729Z,45.00
2018-10-17T23:11:17.592Z,43.83
2018-10-17T23:13:47.680Z,44.33
2018-10-17T23:16:17.706Z,44.53
2018-10-17T23:18:47.795Z,44.87
2018-10-17T23:21:17.849Z,44.13
2018-10-17T23:23:47.851Z,44.37
2018-10-17T23:26:17.893Z,44.37
2018-10-17T23:28:47.705Z,40.80
2018-10-17T23:31:17.675Z,49.90
2018-10-17T23:33:47.669Z,43.57
2018-10-17T23:36:17.583Z,42.37
2018-10-17T23:38:47.347Z,47.40
2018-10-17T23:41:17.444Z,45.20
2018-10-17T23:43:47.810Z,38.20
2018-10-17T23:46:18.120Z,41.20
2018-10-17T23:48:48.092Z,40.93
2018-10-17T23:51:18.025Z,42.67
2018-10-17T23:53:48.162Z,36.77
2018-10-17T23:56:18.378Z,37.00
2018-10-17T23:58:48.254Z,40.47
